Terminal Aerodrome Forecast
Issued by NWS

Home | Current Version | Previous Version | Text Only | Print | Product List | Glossary On
Versions: 1 2 3 4 5 6 7 8 9 10 11 12 13 14 15 16 17 18 19 20 21 22 23 24
806
FTUS41 KBUF 191139
TAFIAG
TAF
KIAG 191139Z 1912/2012 30015G25KT P6SM VCSH SCT015 BKN025 OVC040
     FM191500 30017G30KT P6SM BKN025
     FM192000 29015G25KT P6SM BKN035
     FM192300 29015G25KT P6SM SCT040
     FM200400 28014KT P6SM SCT040 SCT100=

USA.gov is the U.S. government's official web portal to all federal, state and local government web resources and services.